Time;durP1;ratioP1;P1;durP2;ratioP2;P2;SDS_P1;SDS_P2;PMS_P1;PMS_P2;Temp;Humidity;BMP_temperature;BMP_pressure;BME280_temperature;BME280_humidity;BME280_pressure;Samples;Min_cycle;Max_cycle;Signal;HPM_P1;HPM_P2
2022/11/30 00:02:57;;;;;;;48.10;31.63;;;;;10.30;99161.00;;;;16581449;28;20235;-46
2022/11/30 00:10:59;;;;;;;48.33;32.63;;;;;10.30;99160.00;;;;16583911;28;21056;-46
2022/11/30 00:19:03;;;;;;;52.00;33.63;;;;;10.20;99158.00;;;;16584135;28;20221;-46
2022/11/30 00:27:05;;;;;;;47.80;30.53;;;;;10.00;99150.00;;;;16596074;28;20654;-47
2022/11/30 00:35:10;;;;;;;47.97;32.20;;;;;10.20;99145.00;;;;16582755;28;20223;-47
2022/11/30 00:43:12;;;;;;;45.97;34.07;;;;;9.90;99150.00;;;;16596020;28;20680;-46
2022/11/30 00:51:17;;;;;;;42.73;30.80;;;;;9.80;99148.00;;;;16597876;28;20230;-46
2022/11/30 00:59:19;;;;;;;43.67;31.17;;;;;9.90;99151.00;;;;16594543;28;20204;-46
2022/11/30 01:07:23;;;;;;;44.37;31.13;;;;;9.70;99155.00;;;;16590330;28;20631;-45
2022/11/30 01:15:26;;;;;;;41.23;30.30;;;;;9.50;99157.00;;;;16601134;28;20254;-48
2022/11/30 01:23:29;;;;;;;47.90;31.87;;;;;9.40;99167.00;;;;16595427;28;20224;-46
2022/11/30 01:31:32;;;;;;;45.60;30.40;;;;;9.40;99176.00;;;;16593770;28;20669;-45
2022/11/30 01:39:36;;;;;;;37.37;29.47;;;;;9.70;99172.00;;;;16594107;28;20280;-47
2022/11/30 01:47:41;;;;;;;41.33;29.70;;;;;9.60;99177.00;;;;16596819;28;20290;-45
2022/11/30 01:55:48;;;;;;;39.83;28.53;;;;;9.50;99176.00;;;;16593537;28;20215;-46
2022/11/30 02:03:56;;;;;;;38.30;28.57;;;;;9.40;99186.00;;;;16590951;28;20223;-47
2022/11/30 02:12:00;;;;;;;40.37;27.10;;;;;9.30;99184.00;;;;16601481;28;20278;-46
2022/11/30 02:20:34;;;;;;;37.83;25.73;;;;;9.40;99186.00;;;;16598081;28;20253;-45
2022/11/30 02:28:58;;;;;;;36.10;26.23;;;;;9.90;99182.00;;;;16589748;28;20233;-46
2022/11/30 02:37:01;;;;;;;34.53;26.00;;;;;9.50;99181.00;;;;16586106;28;20314;-46
2022/11/30 02:45:07;;;;;;;35.53;26.30;;;;;10.00;99184.00;;;;16588368;28;20266;-46
2022/11/30 02:53:10;;;;;;;35.03;25.90;;;;;10.40;99173.00;;;;16586764;28;20283;-47
2022/11/30 03:01:14;;;;;;;34.37;25.57;;;;;9.60;99181.00;;;;16586108;28;20219;-46
2022/11/30 03:09:16;;;;;;;37.40;27.10;;;;;9.50;99188.00;;;;16587113;28;20298;-46
2022/11/30 03:17:20;;;;;;;35.63;24.47;;;;;9.30;99186.00;;;;16587429;28;20289;-47
2022/11/30 03:25:22;;;;;;;39.03;27.50;;;;;9.90;99197.00;;;;16587409;28;20258;-46
2022/11/30 03:33:26;;;;;;;36.40;26.87;;;;;9.40;99203.00;;;;16579202;28;20691;-47
2022/11/30 03:41:29;;;;;;;37.87;26.43;;;;;9.90;99196.00;;;;16592290;28;20260;-46
2022/11/30 03:49:33;;;;;;;36.70;26.47;;;;;10.20;99195.00;;;;16596522;28;20223;-47
2022/11/30 03:57:35;;;;;;;31.20;24.90;;;;;9.30;99201.00;;;;16584083;28;20290;-46
2022/11/30 04:05:39;;;;;;;32.60;23.53;;;;;9.50;99212.00;;;;16583001;28;20744;-45
2022/11/30 04:13:42;;;;;;;33.10;24.30;;;;;9.30;99205.00;;;;16586200;28;20301;-46
2022/11/30 04:21:47;;;;;;;33.57;24.40;;;;;9.40;99208.00;;;;16605025;28;20222;-45
2022/11/30 04:29:49;;;;;;;31.90;23.30;;;;;9.20;99208.00;;;;16583751;28;20254;-47
2022/11/30 04:37:53;;;;;;;26.37;20.53;;;;;9.20;99215.00;;;;16582384;28;20280;-47
2022/11/30 04:45:56;;;;;;;32.23;23.63;;;;;9.40;99208.00;;;;16585029;28;20215;-45
2022/11/30 04:53:59;;;;;;;33.53;23.40;;;;;9.40;99216.00;;;;16584554;28;20302;-46
2022/11/30 05:02:02;;;;;;;34.57;24.10;;;;;9.40;99203.00;;;;16586785;28;20311;-46
2022/11/30 05:10:08;;;;;;;32.73;24.80;;;;;9.30;99209.00;;;;16582467;28;20316;-45
2022/11/30 05:18:11;;;;;;;34.47;23.70;;;;;9.30;99219.00;;;;16592523;28;20281;-46
2022/11/30 05:26:15;;;;;;;26.50;21.17;;;;;9.30;99214.00;;;;16583648;28;20354;-45
2022/11/30 05:34:17;;;;;;;33.20;23.70;;;;;9.50;99225.00;;;;16545317;28;20227;-46
2022/11/30 05:42:21;;;;;;;33.23;22.83;;;;;9.40;99218.00;;;;16540978;28;20247;-47
2022/11/30 05:50:24;;;;;;;29.80;22.03;;;;;9.30;99232.00;;;;16551000;28;20294;-47
2022/11/30 05:58:28;;;;;;;26.30;21.03;;;;;9.30;99220.00;;;;16554883;28;20215;-47
2022/11/30 06:06:31;;;;;;;27.63;19.40;;;;;9.10;99232.00;;;;16588222;28;20351;-47
2022/11/30 06:14:35;;;;;;;26.70;21.87;;;;;9.30;99221.00;;;;16590346;28;20227;-48
2022/11/30 06:22:37;;;;;;;26.50;20.63;;;;;9.50;99227.00;;;;16570254;28;20759;-47
2022/11/30 06:30:41;;;;;;;32.47;20.20;;;;;9.10;99226.00;;;;16582092;28;20223;-46
2022/11/30 06:38:43;;;;;;;31.73;21.87;;;;;9.20;99226.00;;;;16547763;28;20199;-46
2022/11/30 06:46:47;;;;;;;27.47;19.60;;;;;9.40;99220.00;;;;16559530;28;20936;-47
2022/11/30 06:54:50;;;;;;;25.57;20.77;;;;;9.30;99225.00;;;;16552723;28;20219;-48
2022/11/30 07:02:54;;;;;;;28.40;19.43;;;;;9.30;99239.00;;;;16584001;28;20424;-47
2022/11/30 07:10:56;;;;;;;25.33;19.43;;;;;9.30;99242.00;;;;16568119;28;20724;-48
2022/11/30 07:19:00;;;;;;;23.97;18.93;;;;;10.20;99236.00;;;;16597727;28;20292;-48
2022/11/30 07:27:03;;;;;;;26.67;19.70;;;;;10.60;99237.00;;;;16581618;28;20259;-47
2022/11/30 07:35:08;;;;;;;26.53;20.60;;;;;11.00;99235.00;;;;16585022;28;20709;-46
2022/11/30 07:43:10;;;;;;;25.03;20.40;;;;;11.10;99231.00;;;;16561766;28;20264;-46
2022/11/30 07:51:15;;;;;;;25.63;19.63;;;;;10.50;99242.00;;;;16576060;28;20723;-46
2022/11/30 07:59:18;;;;;;;29.60;20.83;;;;;10.40;99251.00;;;;16582348;28;20208;-47
2022/11/30 08:07:22;;;;;;;30.67;21.23;;;;;10.50;99254.00;;;;16579781;28;20288;-46
2022/11/30 08:15:24;;;;;;;28.53;21.00;;;;;10.70;99251.00;;;;16579173;28;20215;-45
2022/11/30 08:23:28;;;;;;;27.40;19.73;;;;;10.50;99270.00;;;;16578757;28;20367;-46
2022/11/30 08:31:32;;;;;;;30.00;21.33;;;;;11.00;99269.00;;;;16574643;28;20692;-46
2022/11/30 08:39:37;;;;;;;22.40;18.13;;;;;11.00;99265.00;;;;16577715;28;20290;-47
2022/11/30 08:47:40;;;;;;;22.70;16.97;;;;;11.10;99266.00;;;;16588337;28;20223;-49
2022/11/30 08:55:54;;;;;;;27.57;19.50;;;;;11.40;99271.00;;;;16581136;28;20574;-48
2022/11/30 09:03:57;;;;;;;23.87;17.27;;;;;11.60;99271.00;;;;16585257;28;20223;-47
2022/11/30 09:12:01;;;;;;;26.20;18.50;;;;;11.90;99283.00;;;;16587467;28;20229;-47
2022/11/30 09:20:04;;;;;;;29.80;19.00;;;;;11.10;99294.00;;;;16587206;28;20682;-47
2022/11/30 09:28:08;;;;;;;27.07;19.47;;;;;11.30;99293.00;;;;16556173;28;20581;-47
2022/11/30 09:36:12;;;;;;;25.53;18.97;;;;;10.90;99297.00;;;;16562094;28;20221;-47
2022/11/30 09:44:23;;;;;;;23.70;17.97;;;;;10.90;99297.00;;;;16583446;28;20221;-47
2022/11/30 09:52:30;;;;;;;21.47;15.67;;;;;11.30;99294.00;;;;16583426;28;20240;-47
2022/11/30 10:00:35;;;;;;;24.20;17.20;;;;;11.80;99291.00;;;;16583878;28;20549;-47
2022/11/30 10:08:47;;;;;;;20.60;15.93;;;;;12.10;99281.00;;;;16589125;28;20309;-47
2022/11/30 10:16:57;;;;;;;20.03;15.63;;;;;12.00;99279.00;;;;16588153;28;20273;-48
2022/11/30 10:25:06;;;;;;;19.53;15.50;;;;;12.40;99282.00;;;;16581449;28;20335;-46
2022/11/30 10:33:17;;;;;;;21.53;16.13;;;;;12.50;99277.00;;;;16588427;28;20235;-47
2022/11/30 10:41:23;;;;;;;23.33;17.20;;;;;12.20;99277.00;;;;16587580;28;20218;-46
2022/11/30 10:49:29;;;;;;;17.57;13.77;;;;;12.50;99262.00;;;;16588079;28;20287;-48
2022/11/30 10:57:32;;;;;;;21.80;15.57;;;;;12.10;99266.00;;;;16587350;28;20277;-46
2022/11/30 11:05:35;;;;;;;19.97;16.33;;;;;12.30;99263.00;;;;16582213;28;20317;-47
2022/11/30 11:13:40;;;;;;;18.97;12.47;;;;;13.00;99253.00;;;;16594828;28;20258;-48
2022/11/30 11:21:47;;;;;;;17.70;13.20;;;;;12.30;99261.00;;;;16589378;28;20217;-46
2022/11/30 11:29:59;;;;;;;12.43;10.87;;;;;11.80;99258.00;;;;16585133;28;20599;-48
2022/11/30 11:38:04;;;;;;;12.87;10.43;;;;;12.20;99259.00;;;;16574078;28;20224;-48
2022/11/30 11:46:12;;;;;;;14.50;11.50;;;;;12.90;99265.00;;;;16560628;28;20242;-48
2022/11/30 11:54:22;;;;;;;12.43;10.60;;;;;12.80;99258.00;;;;16573118;28;20232;-47
2022/11/30 12:02:32;;;;;;;12.07;9.43;;;;;12.90;99258.00;;;;16551754;28;20691;-47
2022/11/30 12:10:40;;;;;;;11.93;9.50;;;;;12.30;99257.00;;;;16590127;28;20238;-48
2022/11/30 12:18:48;;;;;;;32.43;13.57;;;;;12.50;99250.00;;;;16577534;28;20570;-48
2022/11/30 12:26:58;;;;;;;17.83;13.73;;;;;12.60;99261.00;;;;16583351;28;20234;-48
2022/11/30 12:35:14;;;;;;;18.17;13.80;;;;;12.00;99253.00;;;;16581705;28;20583;-47
2022/11/30 12:43:29;;;;;;;20.77;16.33;;;;;12.10;99257.00;;;;16546230;28;20220;-48
2022/11/30 12:51:35;;;;;;;16.43;13.27;;;;;11.60;99254.00;;;;16558240;28;20239;-46
2022/11/30 12:59:45;;;;;;;17.67;13.73;;;;;11.30;99263.00;;;;16571949;28;20213;-47
2022/11/30 13:07:51;;;;;;;20.20;14.67;;;;;11.80;99265.00;;;;16571882;28;20303;-47
2022/11/30 13:15:56;;;;;;;18.43;15.43;;;;;11.70;99256.00;;;;16583487;28;20285;-47
2022/11/30 13:24:04;;;;;;;22.80;15.03;;;;;12.30;99260.00;;;;16545534;28;20777;-46
2022/11/30 13:32:10;;;;;;;23.17;16.30;;;;;12.20;99257.00;;;;16532054;28;20249;-45
2022/11/30 13:40:21;;;;;;;18.60;14.67;;;;;12.20;99262.00;;;;16539756;28;20339;-46
2022/11/30 13:48:33;;;;;;;20.30;15.93;;;;;12.40;99254.00;;;;16570387;28;20215;-48
2022/11/30 13:56:36;;;;;;;21.70;15.57;;;;;12.40;99254.00;;;;16586917;28;20627;-47
2022/11/30 14:04:46;;;;;;;22.70;16.30;;;;;11.90;99253.00;;;;16591443;28;20223;-49
2022/11/30 14:12:58;;;;;;;23.47;16.50;;;;;11.80;99251.00;;;;16589392;28;20750;-47
2022/11/30 14:21:04;;;;;;;20.77;15.83;;;;;11.30;99257.00;;;;16588017;28;20653;-47
2022/11/30 14:29:16;;;;;;;21.57;16.63;;;;;11.60;99256.00;;;;16588848;28;20215;-48
2022/11/30 14:37:23;;;;;;;23.43;15.30;;;;;11.60;99269.00;;;;16586620;28;20217;-47
2022/11/30 14:45:27;;;;;;;27.93;15.07;;;;;12.50;99270.00;;;;16577763;28;20272;-50
2022/11/30 14:53:42;;;;;;;24.67;17.47;;;;;12.30;99272.00;;;;16571279;28;20230;-48
2022/11/30 15:01:45;;;;;;;17.23;14.37;;;;;11.80;99266.00;;;;16563216;28;20220;-46
2022/11/30 15:09:51;;;;;;;21.70;16.00;;;;;12.40;99269.00;;;;16535319;28;20651;-46
2022/11/30 15:17:56;;;;;;;23.17;16.07;;;;;12.00;99269.00;;;;16533803;28;20346;-48
2022/11/30 15:26:02;;;;;;;21.70;17.63;;;;;11.90;99266.00;;;;16572923;28;20710;-46
2022/11/30 15:34:06;;;;;;;21.50;16.73;;;;;12.10;99271.00;;;;16542574;28;20319;-46
2022/11/30 15:42:19;;;;;;;22.10;16.70;;;;;12.50;99277.00;;;;16542034;28;20219;-47
2022/11/30 15:50:40;;;;;;;19.90;15.57;;;;;12.00;99283.00;;;;16547040;28;20232;-45
2022/11/30 15:59:00;;;;;;;23.03;17.97;;;;;12.20;99285.00;;;;16556569;28;20221;-48
2022/11/30 16:07:04;;;;;;;21.63;14.93;;;;;11.70;99296.00;;;;16573711;28;20322;-46
2022/11/30 16:15:16;;;;;;;21.70;16.60;;;;;11.80;99309.00;;;;16588277;28;20255;-48
2022/11/30 16:23:19;;;;;;;22.67;17.33;;;;;12.10;99304.00;;;;16585087;28;20218;-47
2022/11/30 16:31:23;;;;;;;23.20;17.10;;;;;12.10;99313.00;;;;16592347;28;20312;-47
2022/11/30 16:39:26;;;;;;;25.67;18.03;;;;;12.20;99299.00;;;;16584874;28;20200;-46
2022/11/30 16:47:30;;;;;;;28.73;20.50;;;;;12.40;99306.00;;;;16588472;28;20229;-46
2022/11/30 16:55:36;;;;;;;21.03;16.87;;;;;11.20;99314.00;;;;16578491;28;20271;-46
2022/11/30 17:03:40;;;;;;;23.17;17.37;;;;;11.10;99320.00;;;;16574956;28;20220;-47
2022/11/30 17:11:44;;;;;;;23.40;16.07;;;;;11.70;99318.00;;;;16580394;28;20246;-48
2022/11/30 17:19:48;;;;;;;21.47;15.63;;;;;11.60;99327.00;;;;16570091;28;20218;-45
2022/11/30 17:27:51;;;;;;;23.60;17.20;;;;;12.30;99327.00;;;;16565910;28;20261;-47
2022/11/30 17:35:57;;;;;;;22.53;15.20;;;;;11.30;99336.00;;;;16580485;28;20270;-47
2022/11/30 17:44:00;;;;;;;17.10;13.50;;;;;12.00;99340.00;;;;16552033;28;20232;-48
2022/11/30 17:52:04;;;;;;;13.40;9.43;;;;;11.70;99346.00;;;;16553691;28;20239;-47
2022/11/30 18:00:08;;;;;;;26.40;20.40;;;;;11.70;99344.00;;;;16539814;28;20199;-47
2022/11/30 18:08:12;;;;;;;24.90;19.50;;;;;11.60;99344.00;;;;16543810;28;20220;-47
2022/11/30 18:16:16;;;;;;;16.87;11.50;;;;;11.70;99348.00;;;;16577136;28;20224;-47
2022/11/30 18:24:20;;;;;;;16.77;11.37;;;;;11.60;99344.00;;;;16559173;28;20218;-48
2022/11/30 18:32:23;;;;;;;15.93;12.80;;;;;10.90;99359.00;;;;16555321;28;20234;-46
2022/11/30 18:40:28;;;;;;;16.40;12.20;;;;;10.80;99367.00;;;;16581953;28;20203;-46
2022/11/30 18:48:31;;;;;;;17.63;12.73;;;;;11.00;99374.00;;;;16570855;28;20229;-47
2022/11/30 18:56:36;;;;;;;15.50;11.83;;;;;10.60;99374.00;;;;16585005;28;20228;-48
2022/11/30 19:04:38;;;;;;;20.47;13.70;;;;;10.80;99380.00;;;;16556542;28;20217;-48
2022/11/30 19:12:43;;;;;;;19.40;14.50;;;;;10.80;99379.00;;;;16533636;28;20222;-46
2022/11/30 19:20:46;;;;;;;21.97;15.97;;;;;10.20;99384.00;;;;16557644;28;20287;-47
2022/11/30 19:28:53;;;;;;;22.37;15.10;;;;;10.80;99392.00;;;;16533081;28;20219;-48
2022/11/30 19:36:56;;;;;;;19.10;14.23;;;;;10.70;99392.00;;;;16529077;28;20231;-47
2022/11/30 19:44:59;;;;;;;23.80;17.00;;;;;10.70;99392.00;;;;16533096;28;20224;-46
2022/11/30 19:53:04;;;;;;;20.13;15.40;;;;;10.60;99392.00;;;;16533020;28;20235;-45
2022/11/30 20:01:12;;;;;;;20.30;13.60;;;;;10.30;99401.00;;;;16530209;28;20242;-46
2022/11/30 20:09:14;;;;;;;22.97;14.77;;;;;10.70;99406.00;;;;16522881;28;20550;-48
2022/11/30 20:17:18;;;;;;;20.50;14.93;;;;;10.40;99406.00;;;;16526631;28;20310;-48
2022/11/30 20:25:21;;;;;;;16.37;11.73;;;;;10.30;99419.00;;;;16531090;28;20282;-46
2022/11/30 20:33:24;;;;;;;16.57;11.10;;;;;10.20;99418.00;;;;16526377;28;20227;-45
2022/11/30 20:41:27;;;;;;;15.10;11.00;;;;;10.10;99425.00;;;;16529525;28;20248;-46
2022/11/30 20:49:31;;;;;;;14.03;9.17;;;;;10.00;99419.00;;;;16551960;28;20535;-50
2022/11/30 20:57:34;;;;;;;14.83;10.40;;;;;9.90;99437.00;;;;16571403;28;20247;-49
2022/11/30 21:05:40;;;;;;;14.73;10.37;;;;;9.70;99449.00;;;;16544714;28;20253;-49
2022/11/30 21:13:44;;;;;;;15.73;12.43;;;;;9.70;99440.00;;;;16541023;28;20740;-45
2022/11/30 21:21:47;;;;;;;13.20;9.70;;;;;9.90;99443.00;;;;16543882;28;20223;-47
2022/11/30 21:29:50;;;;;;;15.70;10.07;;;;;10.50;99434.00;;;;16540409;28;20699;-49
2022/11/30 21:37:54;;;;;;;16.50;11.10;;;;;9.60;99436.00;;;;16543460;28;20225;-48
2022/11/30 21:45:58;;;;;;;15.33;10.60;;;;;9.00;99451.00;;;;16599832;28;20269;-48
2022/11/30 21:54:03;;;;;;;16.90;11.60;;;;;9.60;99445.00;;;;16601434;28;20231;-46
2022/11/30 22:02:06;;;;;;;16.10;11.60;;;;;9.60;99443.00;;;;16595261;28;20223;-47
2022/11/30 22:10:11;;;;;;;16.80;12.00;;;;;9.20;99445.00;;;;16584953;23;20286;-75
2022/11/30 22:18:13;;;;;;;17.07;10.77;;;;;9.00;99448.00;;;;16561414;28;20773;-77
2022/11/30 22:26:19;;;;;;;16.63;11.40;;;;;8.90;99464.00;;;;16550669;28;20223;-76
2022/11/30 22:34:22;;;;;;;17.07;11.40;;;;;9.30;99461.00;;;;16544957;28;20228;-74
2022/11/30 22:42:26;;;;;;;17.30;10.53;;;;;9.30;99448.00;;;;16550948;28;20695;-75
2022/11/30 22:50:28;;;;;;;19.60;12.10;;;;;8.10;99462.00;;;;16550352;28;20374;-76
2022/11/30 22:58:33;;;;;;;19.20;13.97;;;;;8.00;99462.00;;;;16574269;28;20293;-74
2022/11/30 23:06:36;;;;;;;20.87;14.03;;;;;8.80;99451.00;;;;16548899;28;20638;-75
2022/11/30 23:14:40;;;;;;;18.20;12.23;;;;;8.00;99457.00;;;;16565748;28;20773;-73
2022/11/30 23:22:42;;;;;;;25.97;16.10;;;;;7.90;99454.00;;;;16557555;28;20645;-75
2022/11/30 23:30:46;;;;;;;22.60;13.53;;;;;8.30;99453.00;;;;16550052;28;20305;-74
2022/11/30 23:38:53;;;;;;;25.00;15.03;;;;;8.30;99451.00;;;;16566985;28;20278;-74
2022/11/30 23:46:57;;;;;;;25.13;16.20;;;;;8.30;99450.00;;;;16542979;28;20223;-74
2022/11/30 23:55:00;;;;;;;22.63;16.30;;;;;7.60;99456.00;;;;16530989;28;20703;-74
